Terminal Aerodrome Forecast
Issued by NWS

Home | Current Version | Previous Version | Text Only | Print | Product List | Glossary On
Versions: 1 2 3 4 5 6 7 8 9 10 11 12 13 14 15
000
FTUS44 KEPZ 282300
TAFDMN
TAF
KDMN 282332Z 2900/2924 29014G24KT P6SM SKC
     FM290200 29008KT P6SM SCT250
     FM291500 33008KT P6SM BKN250
     FM291900 25012G22KT P6SM BKN250=

USA.gov is the U.S. government's official web portal to all federal, state and local government web resources and services.